Terminal Aerodrome Forecast
Issued by NWS Mt. Holly, NJ

Home | Current Version | Previous Version | Text Only | Print | Product List | Glossary On
Versions: 1 2 3 4 5 6 7 8 9 10 11 12 13
000
FTUS41 KPHI 291730
TAFTTN
TAF
KTTN 291730Z 2918/3018 21010KT P6SM SCT050
     FM300000 21003KT P6SM FEW080 SCT250
     FM301500 24008KT P6SM SCT050 BKN250=

USA.gov is the U.S. government's official web portal to all federal, state and local government web resources and services.